Time,TemperatureF,DewpointF,PressureIn,WindDirection,WindDirectionDegrees,WindSpeedMPH,WindSpeedGustMPH,Humidity,HourlyPrecipIn,Conditions,Clouds,dailyrainin,SoftwareType,DateUTC
2013-01-19 00:02:00,31.0,5.0,-100.00,West,264,29.0,39.0,31,0.00,,,-99.99,,2013-01-19 07:02:00,
2013-01-19 00:12:00,32.0,5.0,-100.00,WSW,258,30.0,45.0,31,0.00,,,-99.99,,2013-01-19 07:12:00,
2013-01-19 00:22:00,31.0,5.0,-100.00,WSW,256,30.0,45.0,32,0.00,,,-99.99,,2013-01-19 07:22:00,
2013-01-19 00:32:00,32.0,5.0,-100.00,WSW,256,28.0,39.0,31,0.00,,,-99.99,,2013-01-19 07:32:00,
2013-01-19 00:52:00,32.0,5.0,-100.00,West,263,32.0,41.0,32,0.00,,,-99.99,,2013-01-19 07:52:00,
2013-01-19 01:02:00,31.0,5.0,-100.00,West,267,32.0,44.0,33,0.00,,,-99.99,,2013-01-19 08:02:00,
2013-01-19 01:12:00,31.0,5.0,-100.00,West,268,32.0,45.0,34,0.00,,,-99.99,,2013-01-19 08:12:00,
2013-01-19 01:22:00,30.0,6.0,-100.00,WSW,256,34.0,47.0,35,0.00,,,-99.99,,2013-01-19 08:22:00,
2013-01-19 01:32:00,30.0,6.0,-100.00,West,270,26.0,37.0,35,0.00,,,-99.99,,2013-01-19 08:32:00,
2013-01-19 01:42:00,29.0,6.0,-100.00,West,270,31.0,40.0,36,0.00,,,-99.99,,2013-01-19 08:42:00,
2013-01-19 01:52:00,30.0,6.0,-100.00,West,265,33.0,48.0,36,0.00,,,-99.99,,2013-01-19 08:52:00,
2013-01-19 02:02:00,29.0,6.0,-100.00,West,264,29.0,39.0,36,0.00,,,-99.99,,2013-01-19 09:02:00,
2013-01-19 02:12:00,30.0,5.0,-100.00,West,263,26.0,35.0,35,0.00,,,-99.99,,2013-01-19 09:12:00,
2013-01-19 02:22:00,30.0,5.0,-100.00,West,263,27.0,35.0,33,0.00,,,-99.99,,2013-01-19 09:22:00,
2013-01-19 02:32:00,29.0,6.0,-100.00,WSW,241,33.0,43.0,37,0.00,,,-99.99,,2013-01-19 09:32:00,
2013-01-19 02:42:00,29.0,6.0,-100.00,WSW,243,34.0,43.0,37,0.00,,,-99.99,,2013-01-19 09:42:00,
2013-01-19 02:52:00,30.0,5.0,-100.00,West,264,31.0,42.0,33,0.00,,,-99.99,,2013-01-19 09:52:00,
2013-01-19 03:02:00,30.0,5.0,-100.00,WSW,254,31.0,42.0,33,0.00,,,-99.99,,2013-01-19 10:02:00,
2013-01-19 03:12:00,30.0,4.0,-100.00,West,261,30.0,42.0,33,0.00,,,-99.99,,2013-01-19 10:12:00,
2013-01-19 03:22:00,29.0,5.0,-100.00,WSW,253,32.0,41.0,34,0.00,,,-99.99,,2013-01-19 10:22:00,
2013-01-19 03:32:00,31.0,4.0,-100.00,WSW,256,31.0,43.0,32,0.00,,,-99.99,,2013-01-19 10:32:00,
2013-01-19 03:42:00,29.0,4.0,-100.00,West,264,30.0,42.0,34,0.00,,,-99.99,,2013-01-19 10:42:00,
2013-01-19 03:52:00,29.0,4.0,-100.00,WSW,253,33.0,43.0,34,0.00,,,-99.99,,2013-01-19 10:52:00,
2013-01-19 04:03:00,29.0,5.0,-100.00,WSW,256,30.0,46.0,35,0.00,,,-99.99,,2013-01-19 11:03:00,
2013-01-19 04:12:00,28.0,5.0,-100.00,WSW,253,31.0,46.0,36,0.00,,,-99.99,,2013-01-19 11:12:00,
2013-01-19 05:52:00,29.0,4.0,-100.00,WSW,247,30.0,42.0,33,0.00,,,-99.99,,2013-01-19 12:52:00,
2013-01-19 06:03:00,30.0,3.0,-100.00,WSW,250,30.0,42.0,31,0.00,,,-99.99,,2013-01-19 13:03:00,
2013-01-19 06:12:00,31.0,3.0,-100.00,WSW,250,30.0,42.0,29,0.00,,,-99.99,,2013-01-19 13:12:00,
2013-01-19 06:22:00,29.0,3.0,-100.00,West,267,22.0,32.0,32,0.00,,,-99.99,,2013-01-19 13:22:00,
2013-01-19 06:33:00,29.0,3.0,-100.00,West,267,24.0,32.0,33,0.00,,,-99.99,,2013-01-19 13:33:00,
2013-01-19 06:42:00,29.0,3.0,-100.00,West,261,22.0,31.0,33,0.00,,,-99.99,,2013-01-19 13:42:00,
2013-01-19 06:52:00,29.0,3.0,-100.00,WSW,253,26.0,36.0,32,0.00,,,-99.99,,2013-01-19 13:52:00,
2013-01-19 07:02:00,29.0,3.0,-100.00,WSW,248,28.0,39.0,32,0.00,,,-99.99,,2013-01-19 14:02:00,
2013-01-19 07:12:00,29.0,3.0,-100.00,WSW,247,29.0,39.0,32,0.00,,,-99.99,,2013-01-19 14:12:00,
2013-01-19 07:23:00,29.0,3.0,-100.00,WSW,243,27.0,42.0,33,0.00,,,-99.99,,2013-01-19 14:23:00,
2013-01-19 07:33:00,29.0,3.0,-100.00,WSW,243,27.0,37.0,33,0.00,,,-99.99,,2013-01-19 14:33:00,
2013-01-19 07:42:00,28.0,3.0,-100.00,WSW,240,31.0,40.0,33,0.00,,,-99.99,,2013-01-19 14:42:00,
2013-01-19 07:53:00,28.0,3.0,-100.00,WSW,239,27.0,35.0,34,0.00,,,-99.99,,2013-01-19 14:53:00,
2013-01-19 08:03:00,29.0,3.0,-100.00,WSW,239,31.0,40.0,32,0.00,,,-99.99,,2013-01-19 15:03:00,
2013-01-19 08:12:00,29.0,3.0,-100.00,WSW,239,30.0,37.0,33,0.00,,,-99.99,,2013-01-19 15:12:00,
2013-01-19 08:22:00,30.0,3.0,-100.00,WSW,241,31.0,37.0,31,0.00,,,-99.99,,2013-01-19 15:22:00,
2013-01-19 08:33:00,30.0,3.0,-100.00,WSW,241,29.0,40.0,31,0.00,,,-99.99,,2013-01-19 15:33:00,
2013-01-19 08:43:00,30.0,3.0,-100.00,WSW,241,29.0,35.0,30,0.00,,,-99.99,,2013-01-19 15:43:00,
2013-01-19 08:53:00,31.0,3.0,-100.00,WSW,243,29.0,38.0,29,0.00,,,-99.99,,2013-01-19 15:53:00,
2013-01-19 09:03:00,32.0,2.0,-100.00,WSW,240,28.0,38.0,28,0.00,,,-99.99,,2013-01-19 16:03:00,
2013-01-19 09:12:00,33.0,2.0,-100.00,WSW,243,27.0,38.0,26,0.00,,,-99.99,,2013-01-19 16:12:00,
2013-01-19 09:23:00,35.0,0.0,-100.00,WSW,248,30.0,38.0,22,0.00,,,-99.99,,2013-01-19 16:23:00,
2013-01-19 09:33:00,35.0,-1.0,-100.00,WSW,247,30.0,38.0,20,0.00,,,-99.99,,2013-01-19 16:33:00,
2013-01-19 09:43:00,35.0,0.0,-100.00,WSW,246,27.0,37.0,22,0.00,,,-99.99,,2013-01-19 16:43:00,
2013-01-19 09:53:00,35.0,1.0,-100.00,WSW,241,26.0,35.0,23,0.00,,,-99.99,,2013-01-19 16:53:00,
2013-01-19 10:02:00,35.0,1.0,-100.00,WSW,244,26.0,36.0,23,0.00,,,-99.99,,2013-01-19 17:02:00,
2013-01-19 10:35:00,36.0,-1.0,-100.00,WSW,244,30.0,42.0,21,0.00,,,-99.99,,2013-01-19 17:35:00,
2013-01-19 10:47:00,37.0,0.0,-100.00,WSW,246,29.0,41.0,20,0.00,,,-99.99,,2013-01-19 17:47:00,
2013-01-19 10:53:00,37.0,0.0,-100.00,WSW,244,30.0,39.0,20,0.00,,,-99.99,,2013-01-19 17:53:00,
2013-01-19 11:09:00,37.0,0.0,-100.00,WSW,241,30.0,38.0,21,0.00,,,-99.99,,2013-01-19 18:09:00,
2013-01-19 11:25:00,37.0,1.0,-100.00,SW,236,29.0,39.0,21,0.00,,,-99.99,,2013-01-19 18:25:00,
2013-01-19 11:34:00,37.0,0.0,-100.00,WSW,239,30.0,40.0,21,0.00,,,-99.99,,2013-01-19 18:34:00,
2013-01-19 11:44:00,37.0,-1.0,-100.00,WSW,240,30.0,41.0,20,0.00,,,-99.99,,2013-01-19 18:44:00,
2013-01-19 11:54:00,37.0,-1.0,-100.00,WSW,237,32.0,41.0,19,0.00,,,-99.99,,2013-01-19 18:54:00,
2013-01-19 12:07:00,38.0,-1.0,-100.00,WSW,240,29.0,39.0,19,0.00,,,-99.99,,2013-01-19 19:07:00,
2013-01-19 12:18:00,38.0,1.0,-100.00,WSW,240,29.0,39.0,20,0.00,,,-99.99,,2013-01-19 19:18:00,
2013-01-19 12:28:00,37.0,0.0,-100.00,WSW,240,34.0,45.0,20,0.00,,,-99.99,,2013-01-19 19:28:00,
2013-01-19 12:38:00,37.0,-1.0,-100.00,WSW,240,34.0,49.0,19,0.00,,,-99.99,,2013-01-19 19:38:00,
2013-01-19 12:45:00,37.0,-1.0,-100.00,WSW,239,34.0,42.0,20,0.00,,,-99.99,,2013-01-19 19:45:00,
2013-01-19 12:54:00,37.0,-1.0,-100.00,WSW,239,35.0,47.0,20,0.00,,,-99.99,,2013-01-19 19:54:00,
2013-01-19 13:09:00,38.0,-1.0,-100.00,WSW,240,35.0,49.0,19,0.00,,,-99.99,,2013-01-19 20:09:00,
2013-01-19 13:17:00,38.0,-2.0,-100.00,WSW,240,35.0,47.0,18,0.00,,,-99.99,,2013-01-19 20:17:00,
2013-01-19 13:24:00,38.0,0.0,-100.00,WSW,239,32.0,45.0,19,0.00,,,-99.99,,2013-01-19 20:24:00,
2013-01-19 13:37:00,38.0,-1.0,-100.00,WSW,237,30.0,41.0,19,0.00,,,-99.99,,2013-01-19 20:37:00,
2013-01-19 13:45:00,39.0,-1.0,-100.00,SW,236,28.0,39.0,18,0.00,,,-99.99,,2013-01-19 20:45:00,
2013-01-19 13:54:00,38.0,-1.0,-100.00,WSW,237,30.0,44.0,19,0.00,,,-99.99,,2013-01-19 20:54:00,
2013-01-19 14:06:00,39.0,-2.0,-100.00,WSW,241,29.0,40.0,17,0.00,,,-99.99,,2013-01-19 21:06:00,
2013-01-19 14:14:00,39.0,-2.0,-100.00,WSW,241,29.0,40.0,17,0.00,,,-99.99,,2013-01-19 21:14:00,
2013-01-19 14:25:00,40.0,-1.0,-100.00,West,260,22.0,30.0,17,0.00,,,-99.99,,2013-01-19 21:25:00,
2013-01-19 14:48:00,40.0,-2.0,-100.00,West,264,24.0,31.0,16,0.00,,,-99.99,,2013-01-19 21:48:00,
2013-01-19 15:16:00,38.0,-2.0,-100.00,WSW,258,27.0,38.0,17,0.00,,,-99.99,,2013-01-19 22:16:00,
2013-01-19 15:25:00,38.0,-3.0,-100.00,WSW,254,28.0,39.0,17,0.00,,,-99.99,,2013-01-19 22:25:00,
2013-01-19 15:34:00,38.0,0.0,-100.00,West,260,26.0,37.0,19,0.00,,,-99.99,,2013-01-19 22:34:00,
2013-01-19 15:45:00,38.0,-1.0,-100.00,West,260,22.0,30.0,18,0.00,,,-99.99,,2013-01-19 22:45:00,
2013-01-19 15:54:00,38.0,-1.0,-100.00,West,265,19.0,29.0,18,0.00,,,-99.99,,2013-01-19 22:54:00,
2013-01-19 16:14:00,38.0,-2.0,-100.00,West,264,22.0,30.0,18,0.00,,,-99.99,,2013-01-19 23:14:00,
2013-01-19 16:25:00,38.0,-1.0,-100.00,West,260,20.0,30.0,19,0.00,,,-99.99,,2013-01-19 23:25:00,
2013-01-19 16:34:00,38.0,-1.0,-100.00,West,260,18.0,29.0,19,0.00,,,-99.99,,2013-01-19 23:34:00,
2013-01-19 16:45:00,37.0,0.0,-100.00,West,260,19.0,29.0,20,0.00,,,-99.99,,2013-01-19 23:45:00,
2013-01-19 16:58:00,37.0,0.0,-100.00,West,265,20.0,30.0,20,0.00,,,-99.99,,2013-01-19 23:58:00,
2013-01-19 17:08:00,36.0,0.0,-100.00,West,268,17.0,30.0,21,0.00,,,-99.99,,2013-01-20 00:08:00,
2013-01-19 17:15:00,36.0,0.0,-100.00,West,268,16.0,24.0,22,0.00,,,-99.99,,2013-01-20 00:15:00,
2013-01-19 17:24:00,36.0,0.0,-100.00,West,272,13.0,20.0,21,0.00,,,-99.99,,2013-01-20 00:24:00,
2013-01-19 17:35:00,36.0,-1.0,-100.00,West,277,13.0,25.0,21,0.00,,,-99.99,,2013-01-20 00:35:00,
2013-01-19 17:45:00,35.0,0.0,-100.00,West,267,16.0,27.0,22,0.00,,,-99.99,,2013-01-20 00:45:00,
2013-01-19 17:53:00,35.0,0.0,-100.00,West,260,17.0,23.0,23,0.00,,,-99.99,,2013-01-20 00:53:00,
2013-01-19 18:03:00,34.0,1.0,-100.00,West,263,14.0,21.0,24,0.00,,,-99.99,,2013-01-20 01:03:00,
2013-01-19 18:25:00,35.0,0.0,-100.00,West,270,21.0,32.0,22,0.00,,,-99.99,,2013-01-20 01:25:00,
2013-01-19 18:35:00,34.0,0.0,-100.00,WSW,258,20.0,31.0,23,0.00,,,-99.99,,2013-01-20 01:35:00,
2013-01-19 19:07:00,34.0,1.0,-100.00,WSW,253,25.0,38.0,24,0.00,,,-99.99,,2013-01-20 02:07:00,
2013-01-19 19:25:00,34.0,0.0,-100.00,WSW,256,23.0,33.0,23,0.00,,,-99.99,,2013-01-20 02:25:00,
2013-01-19 19:35:00,34.0,0.0,-100.00,WSW,256,27.0,35.0,24,0.00,,,-99.99,,2013-01-20 02:35:00,
2013-01-19 19:44:00,34.0,0.0,-100.00,WSW,257,27.0,39.0,24,0.00,,,-99.99,,2013-01-20 02:44:00,
2013-01-19 19:55:00,33.0,1.0,-100.00,WSW,256,24.0,33.0,25,0.00,,,-99.99,,2013-01-20 02:55:00,
2013-01-19 20:07:00,33.0,1.0,-100.00,WSW,253,22.0,35.0,26,0.00,,,-99.99,,2013-01-20 03:07:00,
2013-01-19 20:14:00,33.0,2.0,-100.00,WSW,248,24.0,36.0,26,0.00,,,-99.99,,2013-01-20 03:14:00,
2013-01-19 20:24:00,33.0,2.0,-100.00,WSW,247,31.0,40.0,25,0.00,,,-99.99,,2013-01-20 03:24:00,
2013-01-19 20:45:00,34.0,2.0,-100.00,WSW,253,29.0,40.0,25,0.00,,,-99.99,,2013-01-20 03:45:00,
2013-01-19 20:54:00,33.0,1.0,-100.00,WSW,253,29.0,44.0,25,0.00,,,-99.99,,2013-01-20 03:54:00,
2013-01-19 21:04:00,33.0,1.0,-100.00,WSW,253,29.0,38.0,25,0.00,,,-99.99,,2013-01-20 04:04:00,
2013-01-19 21:14:00,33.0,2.0,-100.00,WSW,256,29.0,42.0,25,0.00,,,-99.99,,2013-01-20 04:14:00,
2013-01-19 21:24:00,34.0,1.0,-100.00,WSW,258,30.0,42.0,24,0.00,,,-99.99,,2013-01-20 04:24:00,
2013-01-19 21:44:00,34.0,2.0,-100.00,WSW,258,30.0,42.0,25,0.00,,,-99.99,,2013-01-20 04:44:00,
2013-01-19 21:54:00,34.0,2.0,-100.00,WSW,257,26.0,39.0,25,0.00,,,-99.99,,2013-01-20 04:54:00,
2013-01-19 22:04:00,35.0,2.0,-100.00,WSW,258,29.0,42.0,24,0.00,,,-99.99,,2013-01-20 05:04:00,
2013-01-19 22:12:00,35.0,2.0,-100.00,WSW,251,29.0,42.0,24,0.00,,,-99.99,,2013-01-20 05:12:00,
2013-01-19 22:22:00,35.0,2.0,-100.00,WSW,256,27.0,45.0,24,0.00,,,-99.99,,2013-01-20 05:22:00,
2013-01-19 22:32:00,34.0,2.0,-100.00,WSW,257,30.0,40.0,25,0.00,,,-99.99,,2013-01-20 05:32:00,
2013-01-19 22:42:00,33.0,2.0,-100.00,West,261,24.0,34.0,26,0.00,,,-99.99,,2013-01-20 05:42:00,
2013-01-19 22:53:00,34.0,2.0,-100.00,West,265,24.0,34.0,25,0.00,,,-99.99,,2013-01-20 05:53:00,
2013-01-19 23:02:00,33.0,2.0,-100.00,West,264,24.0,35.0,26,0.00,,,-99.99,,2013-01-20 06:02:00,
2013-01-19 23:12:00,33.0,2.0,-100.00,West,267,26.0,36.0,26,0.00,,,-99.99,,2013-01-20 06:12:00,
2013-01-19 23:22:00,32.0,2.0,-100.00,West,265,23.0,32.0,27,0.00,,,-99.99,,2013-01-20 06:22:00,
2013-01-19 23:33:00,32.0,2.0,-100.00,WSW,258,26.0,37.0,27,0.00,,,-99.99,,2013-01-20 06:33:00,
2013-01-19 23:42:00,32.0,2.0,-100.00,WSW,254,24.0,37.0,28,0.00,,,-99.99,,2013-01-20 06:42:00,
2013-01-19 23:52:00,32.0,2.0,-100.00,WSW,257,23.0,34.0,28,0.00,,,-99.99,,2013-01-20 06:52:00,